Time;durP1;ratioP1;P1;durP2;ratioP2;P2;SDS_P1;SDS_P2;PMS_P1;PMS_P2;Temp;Humidity;BMP_temperature;BMP_pressure;BME280_temperature;BME280_humidity;BME280_pressure;Samples;Min_cycle;Max_cycle;Signal;HPM_P1;HPM_P2
2023/10/29 00:00:31;;;;;;;3.67;1.98;;;;;;;11.27;100.00;98825.06;4901429;29;20568;-87
2023/10/29 00:02:57;;;;;;;2.10;1.65;;;;;;;11.49;100.00;98859.59;4899916;29;20367;-87
2023/10/29 00:05:23;;;;;;;3.25;1.85;;;;;;;11.49;100.00;98840.84;4899738;29;20159;-89
2023/10/29 00:07:49;;;;;;;2.40;2.08;;;;;;;11.52;100.00;98832.28;4884178;29;20030;-86
2023/10/29 00:10:21;;;;;;;3.65;1.90;;;;;;;11.54;100.00;98834.69;4900306;29;20036;-92
2023/10/29 00:12:49;;;;;;;7.25;1.90;;;;;;;11.55;100.00;98833.63;4884044;29;20033;-89
2023/10/29 00:15:14;;;;;;;6.40;2.42;;;;;;;11.59;100.00;98835.50;4900304;29;20485;-92
2023/10/29 00:17:40;;;;;;;2.88;1.90;;;;;;;11.44;100.00;98788.16;4900434;29;20039;-93
2023/10/29 00:20:06;;;;;;;2.95;2.13;;;;;;;11.55;100.00;98810.34;4900098;29;20067;-86
2023/10/29 00:22:32;;;;;;;2.55;2.05;;;;;;;11.59;100.00;98805.25;4899224;29;20044;-88
2023/10/29 00:25:07;;;;;;;5.38;2.45;;;;;;;11.41;100.00;98774.50;4901978;29;20037;-93
2023/10/29 00:27:33;;;;;;;3.67;1.35;;;;;;;11.49;100.00;98757.88;4902781;29;20460;-91
2023/10/29 00:29:58;;;;;;;3.13;1.77;;;;;;;11.75;100.00;98793.44;4903089;29;20060;-89
2023/10/29 00:32:23;;;;;;;4.43;2.13;;;;;;;11.55;100.00;98772.06;4903640;29;20092;-91
2023/10/29 00:34:48;;;;;;;3.47;2.00;;;;;;;11.79;100.00;98802.56;4905259;29;20546;-90
2023/10/29 00:37:16;;;;;;;4.20;1.70;;;;;;;11.85;100.00;98806.81;4905191;29;20039;-90
2023/10/29 00:39:41;;;;;;;4.97;2.10;;;;;;;11.68;100.00;98788.38;4904097;29;20280;-89
2023/10/29 00:42:09;;;;;;;5.57;2.13;;;;;;;11.79;100.00;98795.31;4899881;29;20032;-87
2023/10/29 00:44:34;;;;;;;3.97;2.00;;;;;;;11.81;100.00;98810.31;4884207;29;20038;-88
2023/10/29 00:47:00;;;;;;;4.20;2.03;;;;;;;11.71;100.00;98797.72;4899582;29;20394;-86
2023/10/29 00:49:26;;;;;;;2.53;1.98;;;;;;;11.64;100.00;98798.03;4899455;29;20478;-87
2023/10/29 00:51:52;;;;;;;2.72;2.10;;;;;;;11.73;100.00;98799.06;4899944;29;20493;-86
2023/10/29 00:54:18;;;;;;;2.10;1.90;;;;;;;11.66;100.00;98779.00;4883003;29;20051;-86
2023/10/29 00:56:44;;;;;;;3.55;2.17;;;;;;;11.81;100.00;98803.06;4882439;29;20041;-86
2023/10/29 00:59:15;;;;;;;5.25;2.20;;;;;;;11.79;100.00;98783.81;4898579;29;20160;-90
2023/10/29 01:01:41;;;;;;;3.97;1.95;;;;;;;11.72;100.00;98759.19;4898626;29;20044;-89
2023/10/29 01:04:06;;;;;;;4.03;2.00;;;;;;;11.59;100.00;98755.22;4901134;29;20028;-91
2023/10/29 01:06:35;;;;;;;5.07;1.80;;;;;;;11.62;100.00;98746.63;4899330;29;20034;-88
2023/10/29 01:09:01;;;;;;;5.03;2.47;;;;;;;11.62;100.00;98735.94;4902263;29;20028;-88
2023/10/29 01:11:29;;;;;;;3.25;1.90;;;;;;;11.89;100.00;98770.41;4898483;29;20036;-89
2023/10/29 01:13:54;;;;;;;4.47;2.20;;;;;;;11.78;100.00;98734.00;4883657;29;20033;-88
2023/10/29 01:16:19;;;;;;;5.85;2.10;;;;;;;11.89;100.00;98753.53;4883719;29;20036;-88
2023/10/29 01:18:48;;;;;;;3.13;1.83;;;;;;;11.55;100.00;98715.84;4897722;29;20061;-91
2023/10/29 01:21:16;;;;;;;4.90;2.13;;;;;;;11.48;100.00;98700.09;4898212;29;20435;-92
2023/10/29 01:23:41;;;;;;;3.22;2.00;;;;;;;11.61;100.00;98710.22;4900540;29;20024;-89
2023/10/29 01:26:06;;;;;;;3.33;1.60;;;;;;;11.68;100.00;98728.66;4899794;29;20093;-88
2023/10/29 01:28:32;;;;;;;5.32;2.10;;;;;;;11.60;100.00;98737.28;4901742;29;20033;-90
2023/10/29 01:30:58;;;;;;;3.53;1.90;;;;;;;11.65;100.00;98735.38;4900270;29;20037;-88
2023/10/29 01:33:24;;;;;;;4.68;2.20;;;;;;;11.65;100.00;98743.41;4904650;29;20033;-90
2023/10/29 01:35:49;;;;;;;4.07;2.47;;;;;;;11.93;100.00;98768.78;4902478;29;20028;-89
2023/10/29 01:38:19;;;;;;;4.60;2.10;;;;;;;11.60;100.00;98722.00;4902979;29;20044;-91
2023/10/29 01:40:45;;;;;;;7.13;1.80;;;;;;;11.62;100.00;98719.06;4902444;29;20382;-89
2023/10/29 01:43:10;;;;;;;4.10;2.20;;;;;;;11.72;100.00;98751.16;4899330;29;20111;-89
2023/10/29 01:45:37;;;;;;;2.33;1.75;;;;;;;11.89;100.00;98758.88;4898389;29;20031;-90
2023/10/29 01:48:03;;;;;;;2.95;1.98;;;;;;;11.94;100.00;98729.41;4899615;29;20033;-88
2023/10/29 01:50:29;;;;;;;4.20;2.10;;;;;;;12.01;100.00;98744.09;4882291;29;20032;-88
2023/10/29 01:52:55;;;;;;;3.90;1.92;;;;;;;11.85;100.00;98713.09;4898073;29;20036;-87
2023/10/29 01:55:21;;;;;;;3.92;1.75;;;;;;;11.87;100.00;98720.88;4897688;29;20486;-88
2023/10/29 01:57:46;;;;;;;3.70;1.85;;;;;;;11.77;100.00;98727.03;4901562;29;20060;-91
2023/10/29 02:00:12;;;;;;;2.53;1.80;;;;;;;11.87;100.00;98737.75;4900460;29;20080;-90
2023/10/29 02:02:38;;;;;;;2.50;1.98;;;;;;;11.58;100.00;98713.47;4883255;29;20032;-91
2023/10/29 02:05:04;;;;;;;2.50;1.50;;;;;;;11.56;100.00;98726.28;4900401;29;20188;-92
2023/10/29 02:07:30;;;;;;;4.63;2.00;;;;;;;11.54;100.00;98719.59;4898702;29;20048;-89
2023/10/29 02:09:58;;;;;;;3.10;2.08;;;;;;;11.65;100.00;98737.25;4882452;29;20037;-91
2023/10/29 02:12:23;;;;;;;2.63;1.67;;;;;;;11.94;100.00;98759.66;4896923;29;20602;-87
2023/10/29 02:14:49;;;;;;;3.53;1.75;;;;;;;11.90;100.00;98731.84;4881421;29;20123;-86
2023/10/29 02:17:19;;;;;;;2.78;1.58;;;;;;;11.87;100.00;98731.59;4896780;29;20111;-87
2023/10/29 02:19:44;;;;;;;3.22;1.83;;;;;;;11.83;100.00;98711.75;4896763;29;20127;-85
2023/10/29 02:22:10;;;;;;;2.25;1.70;;;;;;;11.75;100.00;98721.94;4895925;29;20055;-86
2023/10/29 02:24:35;;;;;;;3.55;1.67;;;;;;;11.74;100.00;98701.59;4896482;29;20039;-85
2023/10/29 02:27:01;;;;;;;3.70;2.33;;;;;;;12.03;100.00;98752.66;4896582;29;20025;-91
2023/10/29 02:29:26;;;;;;;3.35;2.03;;;;;;;12.08;100.00;98749.94;4896763;29;20180;-86
2023/10/29 02:31:51;;;;;;;6.65;2.05;;;;;;;11.79;100.00;98704.28;4896611;29;20084;-87
2023/10/29 02:34:19;;;;;;;4.07;1.88;;;;;;;11.83;100.00;98698.38;4897016;29;20402;-88
2023/10/29 02:36:45;;;;;;;1.63;1.52;;;;;;;11.90;100.00;98731.03;4897072;29;20499;-89
2023/10/29 02:39:16;;;;;;;2.10;1.80;;;;;;;11.77;100.00;98703.72;4881864;29;20107;-91
2023/10/29 02:41:41;;;;;;;3.47;1.80;;;;;;;11.86;100.00;98700.53;4897649;29;20477;-89
2023/10/29 02:44:07;;;;;;;2.25;1.83;;;;;;;11.88;100.00;98699.19;4897041;29;20044;-90
2023/10/29 02:46:35;;;;;;;3.05;1.95;;;;;;;11.94;100.00;98700.75;4881017;29;20037;-88
2023/10/29 02:49:00;;;;;;;2.60;1.75;;;;;;;12.23;100.00;98746.41;4881343;29;20485;-89
2023/10/29 02:51:26;;;;;;;2.63;1.50;;;;;;;12.14;100.00;98733.84;4897786;29;20032;-92
2023/10/29 02:53:51;;;;;;;2.90;1.70;;;;;;;12.27;100.00;98747.44;4897015;29;20044;-89
2023/10/29 02:56:17;;;;;;;2.25;1.67;;;;;;;12.04;100.00;98700.69;4896596;29;20044;-89
2023/10/29 02:58:42;;;;;;;2.00;1.77;;;;;;;12.00;100.00;98691.59;4898202;29;20037;-91
2023/10/29 03:01:09;;;;;;;2.85;1.92;;;;;;;12.21;100.00;98710.25;4898396;29;20028;-87
2023/10/29 03:03:37;;;;;;;1.80;1.60;;;;;;;12.23;100.00;98673.25;4897642;29;20029;-90
2023/10/29 03:06:04;;;;;;;2.50;1.70;;;;;;;12.39;100.00;98718.41;4898143;29;20111;-88
2023/10/29 03:08:30;;;;;;;1.77;1.67;;;;;;;12.43;100.00;98685.69;4897292;29;20068;-89
2023/10/29 03:10:56;;;;;;;3.03;1.75;;;;;;;12.66;100.00;98736.75;4898256;29;20393;-91
2023/10/29 03:13:21;;;;;;;1.70;1.60;;;;;;;12.59;100.00;98716.69;4896495;29;20035;-92
2023/10/29 03:15:47;;;;;;;3.50;1.58;;;;;;;12.57;100.00;98713.50;4897255;29;20515;-90
2023/10/29 03:18:13;;;;;;;2.72;1.33;;;;;;;12.56;100.00;98707.34;4882413;29;20500;-90
2023/10/29 03:20:39;;;;;;;4.43;1.45;;;;;;;12.75;100.00;98712.81;4882408;29;20080;-90
2023/10/29 03:23:08;;;;;;;2.85;1.40;;;;;;;12.91;100.00;98743.78;4896965;29;20044;-87
2023/10/29 03:25:34;;;;;;;5.70;1.70;;;;;;;12.91;100.00;98718.84;4896927;29;20489;-91
2023/10/29 03:28:00;;;;;;;3.72;1.27;;;;;;;12.74;100.00;98695.13;4881793;29;20036;-92
2023/10/29 03:30:25;;;;;;;1.33;1.23;;;;;;;12.85;100.00;98719.97;4880783;29;20044;-89
2023/10/29 03:32:50;;;;;;;2.05;1.33;;;;;;;12.88;100.00;98714.84;4895868;29;20029;-88
2023/10/29 03:35:16;;;;;;;1.40;1.30;;;;;;;13.04;100.00;98755.78;4896862;29;20028;-87
2023/10/29 03:37:41;;;;;;;2.35;1.40;;;;;;;13.00;100.00;98747.47;4880628;29;20124;-95
2023/10/29 03:40:07;;;;;;;1.50;1.30;;;;;;;12.88;100.00;98735.50;4898395;29;20032;-90
2023/10/29 03:42:33;;;;;;;3.72;1.92;;;;;;;12.94;100.00;98750.47;4882586;29;20493;-91
2023/10/29 03:44:59;;;;;;;2.50;1.40;;;;;;;12.86;100.00;98727.75;4883314;29;20434;-92
2023/10/29 03:47:25;;;;;;;2.22;1.50;;;;;;;12.77;100.00;98704.50;4865795;29;20037;-89
2023/10/29 03:49:51;;;;;;;2.20;1.50;;;;;;;12.83;100.00;98733.69;4898255;29;20035;-89
2023/10/29 03:52:18;;;;;;;4.50;1.50;;;;;;;12.56;100.00;98712.69;4898374;29;20043;-89
2023/10/29 03:54:44;;;;;;;4.55;1.48;;;;;;;12.72;100.00;98734.81;4880316;29;20032;-91
2023/10/29 03:57:10;;;;;;;3.17;1.70;;;;;;;12.40;100.00;98689.75;4896825;29;20092;-92
2023/10/29 03:59:36;;;;;;;3.97;1.45;;;;;;;12.76;100.00;98751.19;4897256;29;20043;-86
2023/10/29 04:02:01;;;;;;;1.55;1.40;;;;;;;12.63;100.00;98723.91;4880823;29;20029;-91
2023/10/29 04:04:27;;;;;;;6.13;1.50;;;;;;;12.41;100.00;98694.03;4896696;29;20033;-90
2023/10/29 04:06:52;;;;;;;4.25;1.90;;;;;;;12.58;100.00;98715.09;4880153;29;20032;-88
2023/10/29 04:09:18;;;;;;;2.20;1.40;;;;;;;12.39;100.00;98685.47;4895709;29;20036;-88
2023/10/29 04:11:43;;;;;;;3.42;1.70;;;;;;;12.77;100.00;98763.50;4895498;29;20040;-88
2023/10/29 04:14:13;;;;;;;1.90;1.70;;;;;;;12.81;100.00;98719.75;4895605;29;20025;-89
2023/10/29 04:16:38;;;;;;;2.40;1.50;;;;;;;12.69;100.00;98725.44;4897784;29;20076;-92
2023/10/29 04:19:04;;;;;;;2.72;1.38;;;;;;;12.91;100.00;98754.53;4895992;29;20071;-89
2023/10/29 04:21:29;;;;;;;3.00;1.70;;;;;;;12.89;100.00;98770.09;4897820;29;20441;-94
2023/10/29 04:23:54;;;;;;;4.70;1.37;;;;;;;12.80;100.00;98763.75;4896183;29;20033;-90
2023/10/29 04:26:32;;;;;;;3.85;1.75;;;;;;;12.74;100.00;98747.97;4899758;29;20719;-95
2023/10/29 04:28:57;;;;;;;3.65;1.55;;;;;;;12.84;100.00;98755.94;4898449;29;20043;-93
2023/10/29 04:31:22;;;;;;;2.75;1.73;;;;;;;12.70;100.00;98740.47;4896467;29;20028;-90
2023/10/29 04:33:48;;;;;;;4.30;1.55;;;;;;;12.69;100.00;98746.91;4896176;29;20076;-89
2023/10/29 04:36:24;;;;;;;3.50;1.45;;;;;;;12.78;100.00;98749.81;4895163;29;20032;-87
2023/10/29 04:38:50;;;;;;;3.67;1.60;;;;;;;12.69;100.00;98744.22;4895369;29;20045;-92
2023/10/29 04:41:16;;;;;;;3.58;1.63;;;;;;;12.59;100.00;98760.38;4896786;29;20151;-93
2023/10/29 04:43:43;;;;;;;6.05;1.90;;;;;;;12.55;100.00;98761.22;4897628;29;20498;-89
2023/10/29 04:46:13;;;;;;;4.95;1.75;;;;;;;12.53;100.00;98725.84;4898383;29;20323;-89
2023/10/29 04:48:39;;;;;;;2.40;1.30;;;;;;;12.62;100.00;98727.66;4902152;29;20036;-91
2023/10/29 04:51:08;;;;;;;3.30;1.77;;;;;;;12.78;100.00;98754.38;4900603;29;20024;-93
2023/10/29 04:53:37;;;;;;;3.95;1.90;;;;;;;12.85;100.00;98749.47;4899812;29;20048;-92
2023/10/29 04:56:03;;;;;;;5.45;1.70;;;;;;;12.57;100.00;98713.50;4901323;29;20486;-90
2023/10/29 04:58:29;;;;;;;3.70;2.35;;;;;;;12.75;100.00;98757.63;4899630;29;20033;-91
2023/10/29 05:00:56;;;;;;;4.50;1.80;;;;;;;12.78;100.00;98775.81;4883715;29;20374;-89
2023/10/29 05:03:22;;;;;;;3.30;1.50;;;;;;;12.25;100.00;98736.22;4886353;29;20036;-91
2023/10/29 05:05:47;;;;;;;4.65;1.77;;;;;;;11.97;100.00;98744.91;4885317;29;20543;-88
2023/10/29 05:08:12;;;;;;;6.20;2.17;;;;;;;12.02;100.00;98783.19;4899629;29;20071;-92
2023/10/29 05:10:38;;;;;;;2.85;1.55;;;;;;;11.69;100.00;98755.16;4885128;29;20079;-90
2023/10/29 05:13:03;;;;;;;6.20;2.50;;;;;;;11.45;100.00;98735.41;4901320;29;20036;-93
2023/10/29 05:15:29;;;;;;;3.55;1.90;;;;;;;11.36;100.00;98745.88;4903901;29;20029;-92
2023/10/29 05:17:55;;;;;;;5.32;2.00;;;;;;;11.78;100.00;98795.59;4883207;29;20033;-93
2023/10/29 05:20:20;;;;;;;4.80;1.65;;;;;;;11.74;100.00;98826.63;4901093;29;20092;-91
2023/10/29 05:22:45;;;;;;;4.82;1.80;;;;;;;11.64;100.00;98791.88;4898278;29;20037;-89
2023/10/29 05:25:11;;;;;;;2.85;1.52;;;;;;;11.20;100.00;98760.34;4882958;29;20040;-90
2023/10/29 05:27:36;;;;;;;4.47;2.03;;;;;;;11.31;100.00;98783.34;4883779;29;20124;-92
2023/10/29 05:30:05;;;;;;;3.33;1.60;;;;;;;11.26;100.00;98793.25;4898290;29;20045;-91
2023/10/29 05:32:33;;;;;;;4.03;1.83;;;;;;;11.42;100.00;98803.66;4898556;29;20048;-90
2023/10/29 05:34:58;;;;;;;4.32;1.67;;;;;;;11.01;100.00;98773.47;4899808;29;20393;-92
2023/10/29 05:37:24;;;;;;;3.30;1.70;;;;;;;11.14;100.00;98805.03;4897905;29;20024;-87
2023/10/29 05:39:51;;;;;;;3.58;1.85;;;;;;;11.07;100.00;98817.88;4899892;29;20133;-88
2023/10/29 05:42:17;;;;;;;5.93;1.52;;;;;;;10.89;100.00;98821.06;4898224;29;20032;-89
2023/10/29 05:44:42;;;;;;;2.25;1.95;;;;;;;10.79;100.00;98824.53;4897328;29;20048;-85
2023/10/29 05:47:10;;;;;;;4.93;1.80;;;;;;;10.76;100.00;98809.00;4898617;29;20029;-86
2023/10/29 05:49:36;;;;;;;3.20;1.23;;;;;;;10.81;100.00;98846.44;4881717;29;20441;-87
2023/10/29 05:52:01;;;;;;;1.80;1.33;;;;;;;10.77;100.00;98842.69;4897391;29;20039;-85
2023/10/29 05:54:26;;;;;;;3.22;1.40;;;;;;;10.66;100.00;98838.38;4898877;29;20107;-88
2023/10/29 05:56:52;;;;;;;4.00;1.55;;;;;;;10.55;100.00;98850.13;4898153;29;20442;-90
2023/10/29 05:59:18;;;;;;;2.47;1.50;;;;;;;10.53;100.00;98849.56;4899930;29;20478;-90
2023/10/29 06:01:43;;;;;;;1.85;1.58;;;;;;;10.59;100.00;98861.88;4901750;29;20029;-93
2023/10/29 06:04:09;;;;;;;3.92;1.40;;;;;;;10.64;100.00;98879.81;4884387;29;20454;-92
2023/10/29 06:06:34;;;;;;;6.35;1.83;;;;;;;10.66;100.00;98896.38;4902258;29;20084;-88
2023/10/29 06:08:59;;;;;;;4.32;1.60;;;;;;;10.68;100.00;98878.22;4884588;29;20071;-86
2023/10/29 06:11:25;;;;;;;4.90;2.80;;;;;;;10.67;100.00;98879.28;4881249;29;20037;-87
2023/10/29 06:13:53;;;;;;;10.00;2.42;;;;;;;10.73;100.00;98891.63;4882205;29;20029;-88
2023/10/29 06:16:19;;;;;;;4.05;1.70;;;;;;;10.60;100.00;98871.50;4896888;29;20036;-92
2023/10/29 06:18:45;;;;;;;5.45;2.13;;;;;;;10.75;100.00;98916.22;4898287;29;20116;-91
2023/10/29 06:21:11;;;;;;;10.25;2.47;;;;;;;10.82;100.00;98901.53;4898669;29;20079;-92
2023/10/29 06:23:37;;;;;;;5.82;2.05;;;;;;;10.68;100.00;98913.75;4899475;29;20486;-91
2023/10/29 06:26:06;;;;;;;7.60;2.42;;;;;;;10.64;100.00;98890.50;4882165;29;20064;-90
2023/10/29 06:28:33;;;;;;;8.77;2.10;;;;;;;10.71;100.00;98893.75;4898582;29;20512;-93
2023/10/29 06:30:58;;;;;;;6.82;2.58;;;;;;;10.52;100.00;98869.34;4897999;29;20028;-91
2023/10/29 06:33:23;;;;;;;5.95;2.00;;;;;;;10.54;100.00;98885.94;4898388;29;20025;-91
2023/10/29 06:35:48;;;;;;;8.48;2.38;;;;;;;10.73;100.00;98932.50;4898915;29;20055;-89
2023/10/29 06:38:14;;;;;;;6.30;2.05;;;;;;;10.73;100.00;98924.50;4898072;29;20052;-87
2023/10/29 06:40:39;;;;;;;8.88;2.13;;;;;;;10.74;100.00;98923.44;4896836;29;20120;-89
2023/10/29 06:43:05;;;;;;;8.73;2.03;;;;;;;10.76;100.00;98940.00;4897811;29;20104;-88
2023/10/29 06:45:30;;;;;;;6.32;2.30;;;;;;;10.73;100.00;98940.53;4896494;29;20336;-89
2023/10/29 06:47:56;;;;;;;5.97;2.42;;;;;;;10.77;100.00;98925.56;4896976;29;20036;-90
2023/10/29 06:50:21;;;;;;;10.65;2.50;;;;;;;10.84;100.00;98946.72;4880947;29;20529;-88
2023/10/29 06:52:46;;;;;;;6.30;2.55;;;;;;;10.88;100.00;98953.13;4897955;29;20107;-88
2023/10/29 06:55:12;;;;;;;9.32;2.72;;;;;;;10.89;100.00;98969.97;4897569;29;20079;-90
2023/10/29 06:57:38;;;;;;;7.03;2.20;;;;;;;10.96;100.00;98975.88;4881219;29;20020;-92
2023/10/29 07:00:03;;;;;;;6.05;2.10;;;;;;;11.03;100.00;98981.81;4896980;29;20032;-89
2023/10/29 07:02:31;;;;;;;8.40;2.40;;;;;;;11.05;100.00;98968.97;4897863;29;20398;-89
2023/10/29 07:04:58;;;;;;;6.97;2.30;;;;;;;11.04;100.00;98968.19;4896093;29;20040;-88
2023/10/29 07:07:28;;;;;;;6.82;2.70;;;;;;;11.09;100.00;98989.59;4897186;29;20470;-88
2023/10/29 07:09:55;;;;;;;9.13;2.10;;;;;;;11.34;100.00;98985.38;4897861;29;20073;-90
2023/10/29 07:12:20;;;;;;;6.63;1.80;;;;;;;11.71;100.00;98998.53;4896471;29;20028;-90
2023/10/29 07:14:45;;;;;;;10.48;2.30;;;;;;;11.59;100.00;99006.03;4880947;29;20047;-88
2023/10/29 07:17:11;;;;;;;5.38;1.80;;;;;;;11.36;100.00;98989.38;4897641;29;20046;-91
2023/10/29 07:19:36;;;;;;;10.18;2.25;;;;;;;11.41;100.00;98997.41;4898602;29;20032;-92
2023/10/29 07:22:01;;;;;;;5.50;2.00;;;;;;;11.71;100.00;99010.03;4896444;29;20592;-91
2023/10/29 07:24:27;;;;;;;11.48;2.28;;;;;;;11.84;100.00;98992.66;4897276;29;20088;-94
2023/10/29 07:26:52;;;;;;;7.68;1.98;;;;;;;11.82;100.00;98981.41;4896514;29;20370;-95
2023/10/29 07:29:18;;;;;;;6.72;2.10;;;;;;;11.86;100.00;98984.41;4883370;29;20405;-94
2023/10/29 07:31:43;;;;;;;7.28;2.58;;;;;;;11.88;100.00;98966.97;4898595;29;20033;-92
2023/10/29 07:34:08;;;;;;;9.52;2.40;;;;;;;12.10;100.00;99010.34;4883263;29;20040;-91
2023/10/29 07:36:34;;;;;;;6.25;1.90;;;;;;;12.18;100.00;99045.72;4883871;29;20048;-92
2023/10/29 07:38:59;;;;;;;6.10;2.55;;;;;;;12.14;100.00;99001.75;4899943;29;20025;-91
2023/10/29 07:41:25;;;;;;;11.50;3.53;;;;;;;12.26;100.00;98992.38;4900728;29;20033;-93
2023/10/29 07:43:50;;;;;;;7.35;2.00;;;;;;;12.31;100.00;99002.28;4897299;29;20047;-88
2023/10/29 07:46:15;;;;;;;12.38;2.88;;;;;;;12.79;100.00;99040.28;4895776;29;20037;-88
2023/10/29 07:48:41;;;;;;;6.35;2.47;;;;;;;12.95;100.00;99053.34;4896865;29;20056;-88
2023/10/29 07:51:09;;;;;;;12.90;2.28;;;;;;;13.13;100.00;99065.38;4896358;29;20459;-86
2023/10/29 07:53:34;;;;;;;8.07;2.22;;;;;;;13.19;100.00;99056.25;4895758;29;20028;-89
2023/10/29 07:56:13;;;;;;;8.88;3.03;;;;;;;13.49;100.00;99041.06;4897170;29;20505;-87
2023/10/29 07:58:40;;;;;;;7.68;1.98;;;;;;;13.45;100.00;99048.06;4897360;29;20041;-89
2023/10/29 08:01:14;;;;;;;6.90;2.65;;;;;;;13.60;100.00;99069.50;4897003;29;20036;-89
2023/10/29 08:03:41;;;;;;;9.20;2.75;;;;;;;13.77;100.00;99063.72;4895669;29;20035;-90
2023/10/29 08:06:07;;;;;;;8.75;2.75;;;;;;;13.68;100.00;99046.59;4896024;29;20485;-86
2023/10/29 08:08:33;;;;;;;9.77;2.65;;;;;;;13.69;100.00;99069.69;4880197;29;20037;-86
2023/10/29 08:11:04;;;;;;;9.60;2.65;;;;;;;13.58;100.00;99029.44;4895598;29;20064;-89
2023/10/29 08:13:29;;;;;;;13.07;2.80;;;;;;;14.27;100.00;99047.22;4895741;29;20029;-87
2023/10/29 08:15:55;;;;;;;6.63;2.97;;;;;;;14.76;100.00;99092.00;4895514;29;20497;-87
2023/10/29 08:18:21;;;;;;;7.35;2.70;;;;;;;14.44;100.00;99072.91;4896567;29;20455;-88
2023/10/29 08:20:46;;;;;;;7.47;2.40;;;;;;;14.04;100.00;99044.47;4899186;29;20111;-87
2023/10/29 08:23:12;;;;;;;7.80;2.10;;;;;;;14.18;100.00;99059.69;4899202;29;20039;-89
2023/10/29 08:25:38;;;;;;;8.90;2.10;;;;;;;14.06;100.00;99066.47;4883506;29;20120;-88
2023/10/29 08:28:04;;;;;;;11.57;2.38;;;;;;;13.71;100.00;99049.53;4898634;29;20040;-87
2023/10/29 08:30:29;;;;;;;8.07;2.70;;;;;;;14.19;100.00;99119.63;4899268;29;20045;-89
2023/10/29 08:32:55;;;;;;;7.70;2.20;;;;;;;14.09;100.00;99082.03;4898508;29;20486;-90
2023/10/29 08:35:20;;;;;;;5.95;2.38;;;;;;;13.95;100.00;99085.38;4898950;29;20043;-89
2023/10/29 08:37:47;;;;;;;7.28;2.17;;;;;;;14.13;100.00;99091.94;4898613;29;20127;-88
2023/10/29 08:40:13;;;;;;;7.38;2.80;;;;;;;14.44;100.00;99105.19;4898665;29;20036;-87
2023/10/29 08:42:42;;;;;;;4.10;2.00;;;;;;;14.18;100.00;99091.94;4900045;29;20055;-91
2023/10/29 08:45:07;;;;;;;6.30;2.13;;;;;;;14.33;100.00;99099.06;4899772;29;20096;-89
2023/10/29 08:47:33;;;;;;;6.57;1.98;;;;;;;14.22;100.00;99114.47;4899477;29;20040;-88
2023/10/29 08:49:58;;;;;;;7.35;1.92;;;;;;;14.26;100.00;99126.28;4898101;29;20036;-87
2023/10/29 08:52:24;;;;;;;8.35;2.15;;;;;;;14.82;100.00;99135.81;4899385;29;20037;-87
2023/10/29 08:54:50;;;;;;;6.20;2.50;;;;;;;14.53;100.00;99154.63;4899435;29;20052;-88
2023/10/29 08:57:16;;;;;;;12.40;2.55;;;;;;;14.32;100.00;99147.75;4899355;29;20419;-87
2023/10/29 08:59:41;;;;;;;6.50;2.22;;;;;;;14.69;100.00;99136.44;4898387;29;20063;-87
2023/10/29 09:02:08;;;;;;;9.95;2.58;;;;;;;15.14;100.00;99141.38;4898405;29;20047;-87
2023/10/29 09:04:40;;;;;;;7.47;3.05;;;;;;;15.66;100.00;99153.22;4899692;29;20060;-92
2023/10/29 09:07:05;;;;;;;10.93;2.40;;;;;;;15.64;100.00;99154.59;4898281;29;20036;-88
2023/10/29 09:09:31;;;;;;;8.00;2.15;;;;;;;15.80;100.00;99169.47;4899828;29;20103;-88
2023/10/29 09:11:57;;;;;;;6.47;2.03;;;;;;;15.85;100.00;99145.13;4898353;29;20047;-95
2023/10/29 09:14:22;;;;;;;7.30;2.25;;;;;;;16.11;100.00;99159.88;4899410;29;20033;-88
2023/10/29 09:16:48;;;;;;;9.38;2.80;;;;;;;15.35;100.00;99173.50;4898250;29;20039;-86
2023/10/29 09:19:14;;;;;;;4.90;1.55;;;;;;;14.69;100.00;99166.03;4898809;29;20520;-85
2023/10/29 09:21:39;;;;;;;9.55;2.75;;;;;;;14.41;100.00;99184.50;4881869;29;20036;-81
2023/10/29 09:24:06;;;;;;;7.18;2.85;;;;;;;14.22;100.00;99199.72;4897312;29;20045;-81
2023/10/29 09:26:32;;;;;;;10.32;2.35;;;;;;;14.41;100.00;99197.97;4882052;29;20024;-86
2023/10/29 09:28:59;;;;;;;9.38;2.45;;;;;;;15.48;100.00;99197.84;4881842;29;20500;-83
2023/10/29 09:31:25;;;;;;;5.28;2.45;;;;;;;16.28;100.00;99186.34;4897179;29;20025;-83
2023/10/29 09:33:50;;;;;;;7.22;1.98;;;;;;;17.16;100.00;99202.75;4898509;29;20485;-84
2023/10/29 09:36:17;;;;;;;9.70;2.25;;;;;;;17.08;100.00;99192.66;4897238;29;20029;-83
2023/10/29 09:38:43;;;;;;;10.85;2.40;;;;;;;16.24;100.00;99209.59;4897191;29;20024;-82
2023/10/29 09:41:08;;;;;;;5.72;2.25;;;;;;;15.85;100.00;99180.16;4897309;29;20123;-84
2023/10/29 09:43:40;;;;;;;13.25;3.00;;;;;;;15.36;100.00;99196.66;4898281;29;20033;-84
2023/10/29 09:46:06;;;;;;;7.53;2.80;;;;;;;15.19;100.00;99202.47;4897335;29;20041;-81
2023/10/29 09:48:33;;;;;;;8.13;2.05;;;;;;;15.16;100.00;99171.53;4897032;29;20027;-83
2023/10/29 09:51:04;;;;;;;10.23;2.33;;;;;;;15.34;100.00;99193.44;4898102;29;20033;-84
2023/10/29 09:53:31;;;;;;;7.97;2.05;;;;;;;15.75;100.00;99188.41;4896864;29;20088;-86
2023/10/29 09:55:57;;;;;;;8.05;2.42;;;;;;;15.72;100.00;99192.47;4896988;29;20188;-84
2023/10/29 09:58:23;;;;;;;7.20;2.45;;;;;;;15.58;100.00;99194.25;4898131;29;20112;-83
2023/10/29 10:00:49;;;;;;;6.68;2.35;;;;;;;15.36;100.00;99193.94;4898228;29;20028;-81
2023/10/29 10:03:15;;;;;;;10.13;2.38;;;;;;;15.11;100.00;99181.53;4881030;29;20037;-85
2023/10/29 10:05:42;;;;;;;7.20;2.65;;;;;;;14.82;100.00;99154.63;4898035;29;20024;-84
2023/10/29 10:08:07;;;;;;;6.85;2.20;;;;;;;14.58;100.00;99173.41;4896640;29;20036;-82
2023/10/29 10:10:41;;;;;;;8.27;2.20;;;;;;;14.34;100.00;99169.78;4896669;29;20078;-83
2023/10/29 10:13:07;;;;;;;10.90;2.30;;;;;;;14.16;100.00;99165.84;4897861;29;20482;-86
2023/10/29 10:15:33;;;;;;;8.10;2.45;;;;;;;14.01;100.00;99172.13;4897868;29;20033;-87
2023/10/29 10:18:06;;;;;;;7.70;2.63;;;;;;;13.92;100.00;99163.88;4897738;29;20389;-84
2023/10/29 10:20:35;;;;;;;7.43;2.00;;;;;;;13.81;100.00;99146.19;4896515;29;20037;-83
2023/10/29 10:50:49;;;;;;;5.35;1.83;;;;;;;14.47;100.00;99213.03;4803559;29;20100;-84
2023/10/29 10:53:16;;;;;;;8.27;2.93;;;;;;;14.22;100.00;99213.16;4812423;29;20046;-83
2023/10/29 10:55:52;;;;;;;9.35;2.33;;;;;;;13.96;100.00;99188.28;4897191;29;20284;-85
2023/10/29 10:59:09;;;;;;;6.97;1.90;;;;;;;14.07;100.00;99202.47;4880512;29;20044;-84
2023/10/29 11:01:39;;;;;;;7.32;2.30;;;;;;;13.68;100.00;99157.53;4893658;29;20056;-86
2023/10/29 11:04:11;;;;;;;7.85;2.40;;;;;;;13.77;100.00;99171.19;4895818;29;20134;-84
2023/10/29 11:06:48;;;;;;;;;;;;;;;;;;;;;
2023/10/29 11:09:14;;;;;;;8.60;2.67;;;;;;;13.58;100.00;99173.66;4897410;29;20038;-85
2023/10/29 11:15:22;;;;;;;6.88;2.47;;;;;;;13.62;100.00;99190.88;4888366;29;20402;-84
2023/10/29 11:18:03;;;;;;;8.05;2.25;;;;;;;13.33;100.00;99158.47;4896626;29;20036;-84
2023/10/29 11:20:38;;;;;;;5.25;2.28;;;;;;;13.45;100.00;99177.75;4895551;29;20045;-83
2023/10/29 11:23:14;;;;;;;7.88;2.53;;;;;;;13.30;100.00;99146.41;4897018;29;20536;-86
2023/10/29 11:29:02;;;;;;;11.18;3.60;;;;;;;13.15;100.00;99116.09;4896975;29;20043;-83
2023/10/29 11:52:06;;;;;;;7.45;2.85;;;;;;;14.45;100.00;99104.09;4821010;29;20540;-84
2023/10/29 12:08:24;;;;;;;11.35;2.72;;;;;;;14.05;100.00;99063.00;4798898;29;20412;-83
2023/10/29 12:11:13;;;;;;;9.38;2.70;;;;;;;14.13;100.00;99088.47;4808241;29;20038;-83
2023/10/29 12:13:40;;;;;;;13.63;2.70;;;;;;;13.68;100.00;99060.03;4823433;29;20575;-80
2023/10/29 12:16:07;;;;;;;14.10;2.50;;;;;;;13.90;100.00;99104.22;4808417;29;20034;-81
2023/10/29 12:18:33;;;;;;;15.70;3.15;;;;;;;13.88;100.00;99106.38;4841100;29;20391;-82
2023/10/29 12:21:05;;;;;;;7.97;2.20;;;;;;;13.83;100.00;99108.28;4899782;29;20049;-83
2023/10/29 12:23:57;;;;;;;11.55;2.47;;;;;;;13.84;100.00;99094.56;4899644;29;20055;-84
2023/10/29 12:26:25;;;;;;;8.50;2.50;;;;;;;13.85;100.00;99080.06;4898702;29;20119;-81
2023/10/29 12:28:52;;;;;;;7.05;2.20;;;;;;;13.78;100.00;99084.13;4899596;29;20533;-81
2023/10/29 12:31:37;;;;;;;;;;;;;;;;;;;;;
2023/10/29 12:37:27;;;;;;;8.35;2.53;;;;;;;13.88;100.00;99102.91;4878940;29;20081;-86